sensor_id;sensor_type;location;lat;lon;timestamp;temperature;humidity
23556;DHT22;11956;53.184;8.578;2023-09-19T00:01:41;17.20;99.90
23556;DHT22;11956;53.184;8.578;2023-09-19T00:04:42;17.20;99.90
23556;DHT22;11956;53.184;8.578;2023-09-19T00:07:43;17.20;99.90
23556;DHT22;11956;53.184;8.578;2023-09-19T00:10:45;17.30;99.90
23556;DHT22;11956;53.184;8.578;2023-09-19T00:13:48;17.20;99.90
23556;DHT22;11956;53.184;8.578;2023-09-19T00:16:50;17.20;99.90
23556;DHT22;11956;53.184;8.578;2023-09-19T00:19:51;17.20;99.90
23556;DHT22;11956;53.184;8.578;2023-09-19T00:22:52;17.20;99.90
23556;DHT22;11956;53.184;8.578;2023-09-19T00:25:53;17.20;99.90
23556;DHT22;11956;53.184;8.578;2023-09-19T00:28:57;17.20;99.90
23556;DHT22;11956;53.184;8.578;2023-09-19T00:32:07;17.20;99.90
23556;DHT22;11956;53.184;8.578;2023-09-19T00:35:08;17.10;99.90
23556;DHT22;11956;53.184;8.578;2023-09-19T00:38:12;17.10;99.90
23556;DHT22;11956;53.184;8.578;2023-09-19T00:41:16;17.10;99.90
23556;DHT22;11956;53.184;8.578;2023-09-19T00:44:16;17.00;99.90
23556;DHT22;11956;53.184;8.578;2023-09-19T00:47:18;16.90;99.90
23556;DHT22;11956;53.184;8.578;2023-09-19T00:50:22;16.80;99.90
23556;DHT22;11956;53.184;8.578;2023-09-19T00:53:24;16.70;99.90
23556;DHT22;11956;53.184;8.578;2023-09-19T00:56:28;16.60;99.90
23556;DHT22;11956;53.184;8.578;2023-09-19T00:59:29;16.50;99.90
23556;DHT22;11956;53.184;8.578;2023-09-19T01:02:32;16.50;99.90
23556;DHT22;11956;53.184;8.578;2023-09-19T01:05:33;16.50;99.90
23556;DHT22;11956;53.184;8.578;2023-09-19T01:08:35;16.60;99.90
23556;DHT22;11956;53.184;8.578;2023-09-19T01:11:47;16.60;99.90
23556;DHT22;11956;53.184;8.578;2023-09-19T01:15:00;16.60;99.90
23556;DHT22;11956;53.184;8.578;2023-09-19T01:28:52;16.60;99.90
23556;DHT22;11956;53.184;8.578;2023-09-19T01:31:59;16.60;99.90
23556;DHT22;11956;53.184;8.578;2023-09-19T01:35:03;16.60;99.90
23556;DHT22;11956;53.184;8.578;2023-09-19T01:38:05;16.60;99.90
23556;DHT22;11956;53.184;8.578;2023-09-19T01:41:12;16.50;99.90
23556;DHT22;11956;53.184;8.578;2023-09-19T01:47:51;16.50;99.90
23556;DHT22;11956;53.184;8.578;2023-09-19T01:51:02;16.50;99.90
23556;DHT22;11956;53.184;8.578;2023-09-19T01:54:09;16.50;99.90
23556;DHT22;11956;53.184;8.578;2023-09-19T01:57:24;16.50;99.90
23556;DHT22;11956;53.184;8.578;2023-09-19T02:00:27;16.40;99.90
23556;DHT22;11956;53.184;8.578;2023-09-19T02:03:31;16.40;99.90
23556;DHT22;11956;53.184;8.578;2023-09-19T02:06:32;16.30;99.90
23556;DHT22;11956;53.184;8.578;2023-09-19T02:09:34;16.20;99.90
23556;DHT22;11956;53.184;8.578;2023-09-19T02:12:35;16.20;99.90
23556;DHT22;11956;53.184;8.578;2023-09-19T02:15:37;16.00;99.90
23556;DHT22;11956;53.184;8.578;2023-09-19T02:18:39;16.00;99.90
23556;DHT22;11956;53.184;8.578;2023-09-19T02:21:40;16.00;99.90
23556;DHT22;11956;53.184;8.578;2023-09-19T02:24:40;15.90;99.90
23556;DHT22;11956;53.184;8.578;2023-09-19T02:27:42;15.90;99.90
23556;DHT22;11956;53.184;8.578;2023-09-19T02:30:47;15.80;99.90
23556;DHT22;11956;53.184;8.578;2023-09-19T02:33:50;15.60;99.90
23556;DHT22;11956;53.184;8.578;2023-09-19T02:36:51;15.60;99.90
23556;DHT22;11956;53.184;8.578;2023-09-19T02:39:54;15.40;99.90
23556;DHT22;11956;53.184;8.578;2023-09-19T02:42:56;15.30;99.90
23556;DHT22;11956;53.184;8.578;2023-09-19T02:45:57;15.30;99.90
23556;DHT22;11956;53.184;8.578;2023-09-19T02:48:59;15.20;99.90
23556;DHT22;11956;53.184;8.578;2023-09-19T02:52:00;15.10;99.90
23556;DHT22;11956;53.184;8.578;2023-09-19T02:55:01;15.00;99.90
23556;DHT22;11956;53.184;8.578;2023-09-19T02:58:03;15.00;99.90
23556;DHT22;11956;53.184;8.578;2023-09-19T03:01:09;14.90;99.90
23556;DHT22;11956;53.184;8.578;2023-09-19T03:04:13;14.90;99.90
23556;DHT22;11956;53.184;8.578;2023-09-19T03:07:14;14.80;99.90
23556;DHT22;11956;53.184;8.578;2023-09-19T03:10:16;14.80;99.90
23556;DHT22;11956;53.184;8.578;2023-09-19T03:13:17;14.70;99.90
23556;DHT22;11956;53.184;8.578;2023-09-19T03:16:19;14.70;99.90
23556;DHT22;11956;53.184;8.578;2023-09-19T03:19:24;14.60;99.90
23556;DHT22;11956;53.184;8.578;2023-09-19T03:22:28;14.50;99.90
23556;DHT22;11956;53.184;8.578;2023-09-19T03:25:28;14.50;99.90
23556;DHT22;11956;53.184;8.578;2023-09-19T03:28:29;14.50;99.90
23556;DHT22;11956;53.184;8.578;2023-09-19T03:31:34;14.50;99.90
23556;DHT22;11956;53.184;8.578;2023-09-19T03:34:38;14.50;99.90
23556;DHT22;11956;53.184;8.578;2023-09-19T03:37:45;14.40;99.90
23556;DHT22;11956;53.184;8.578;2023-09-19T03:40:47;14.40;99.90
23556;DHT22;11956;53.184;8.578;2023-09-19T03:43:49;14.30;99.90
23556;DHT22;11956;53.184;8.578;2023-09-19T03:46:50;14.30;99.90
23556;DHT22;11956;53.184;8.578;2023-09-19T03:49:51;14.30;99.90
23556;DHT22;11956;53.184;8.578;2023-09-19T03:52:57;14.30;99.90
23556;DHT22;11956;53.184;8.578;2023-09-19T03:55:58;14.30;99.90
23556;DHT22;11956;53.184;8.578;2023-09-19T03:59:00;14.30;99.90
23556;DHT22;11956;53.184;8.578;2023-09-19T04:02:01;14.30;99.90
23556;DHT22;11956;53.184;8.578;2023-09-19T04:05:02;14.30;99.90
23556;DHT22;11956;53.184;8.578;2023-09-19T04:08:04;14.30;99.90
23556;DHT22;11956;53.184;8.578;2023-09-19T04:11:06;14.30;99.90
23556;DHT22;11956;53.184;8.578;2023-09-19T04:14:08;14.30;99.90
23556;DHT22;11956;53.184;8.578;2023-09-19T04:17:08;14.30;99.90
23556;DHT22;11956;53.184;8.578;2023-09-19T04:20:10;14.30;99.90
23556;DHT22;11956;53.184;8.578;2023-09-19T04:23:13;14.30;99.90
23556;DHT22;11956;53.184;8.578;2023-09-19T04:26:14;14.30;99.90
23556;DHT22;11956;53.184;8.578;2023-09-19T04:29:17;14.40;99.90
23556;DHT22;11956;53.184;8.578;2023-09-19T04:32:19;14.30;99.90
23556;DHT22;11956;53.184;8.578;2023-09-19T04:35:20;14.30;99.90
23556;DHT22;11956;53.184;8.578;2023-09-19T04:38:21;14.40;99.90
23556;DHT22;11956;53.184;8.578;2023-09-19T04:41:22;14.30;99.90
23556;DHT22;11956;53.184;8.578;2023-09-19T04:44:23;14.30;99.90
23556;DHT22;11956;53.184;8.578;2023-09-19T04:47:24;14.30;99.90
23556;DHT22;11956;53.184;8.578;2023-09-19T04:50:25;14.30;99.90
23556;DHT22;11956;53.184;8.578;2023-09-19T04:53:28;14.30;99.90
23556;DHT22;11956;53.184;8.578;2023-09-19T04:56:29;14.20;99.90
23556;DHT22;11956;53.184;8.578;2023-09-19T04:59:31;14.20;99.90
23556;DHT22;11956;53.184;8.578;2023-09-19T05:02:31;14.10;99.90
23556;DHT22;11956;53.184;8.578;2023-09-19T05:05:32;14.10;99.90
23556;DHT22;11956;53.184;8.578;2023-09-19T05:08:35;14.10;99.90
23556;DHT22;11956;53.184;8.578;2023-09-19T05:11:36;14.10;99.90
23556;DHT22;11956;53.184;8.578;2023-09-19T05:14:38;14.20;99.90
23556;DHT22;11956;53.184;8.578;2023-09-19T05:17:41;14.20;99.90
23556;DHT22;11956;53.184;8.578;2023-09-19T05:20:41;14.20;99.90
23556;DHT22;11956;53.184;8.578;2023-09-19T05:23:44;14.20;99.90
23556;DHT22;11956;53.184;8.578;2023-09-19T05:26:45;14.30;99.90
23556;DHT22;11956;53.184;8.578;2023-09-19T05:29:46;14.40;99.90
23556;DHT22;11956;53.184;8.578;2023-09-19T05:32:48;14.50;99.90
23556;DHT22;11956;53.184;8.578;2023-09-19T05:35:49;14.60;99.90
23556;DHT22;11956;53.184;8.578;2023-09-19T05:38:50;14.70;99.90
23556;DHT22;11956;53.184;8.578;2023-09-19T05:41:54;14.80;99.90
23556;DHT22;11956;53.184;8.578;2023-09-19T05:44:57;15.00;99.90
23556;DHT22;11956;53.184;8.578;2023-09-19T05:48:08;15.10;99.90
23556;DHT22;11956;53.184;8.578;2023-09-19T05:51:09;15.20;99.90
23556;DHT22;11956;53.184;8.578;2023-09-19T05:54:10;15.20;99.90
23556;DHT22;11956;53.184;8.578;2023-09-19T05:57:11;15.20;99.90
23556;DHT22;11956;53.184;8.578;2023-09-19T06:00:13;15.20;99.90
23556;DHT22;11956;53.184;8.578;2023-09-19T06:03:14;15.30;99.90
23556;DHT22;11956;53.184;8.578;2023-09-19T06:06:15;15.40;99.90
23556;DHT22;11956;53.184;8.578;2023-09-19T06:09:16;15.50;99.90
23556;DHT22;11956;53.184;8.578;2023-09-19T06:12:17;15.50;99.90
23556;DHT22;11956;53.184;8.578;2023-09-19T06:15:19;15.60;99.90
23556;DHT22;11956;53.184;8.578;2023-09-19T06:18:23;15.60;99.90
23556;DHT22;11956;53.184;8.578;2023-09-19T06:21:27;15.50;99.90
23556;DHT22;11956;53.184;8.578;2023-09-19T06:24:28;15.50;99.90
23556;DHT22;11956;53.184;8.578;2023-09-19T06:27:29;15.60;99.90
23556;DHT22;11956;53.184;8.578;2023-09-19T06:30:30;15.60;99.90
23556;DHT22;11956;53.184;8.578;2023-09-19T06:33:31;15.60;99.90
23556;DHT22;11956;53.184;8.578;2023-09-19T06:36:32;15.60;99.90
23556;DHT22;11956;53.184;8.578;2023-09-19T06:39:33;15.70;99.90
23556;DHT22;11956;53.184;8.578;2023-09-19T06:42:34;15.60;99.90
23556;DHT22;11956;53.184;8.578;2023-09-19T06:45:37;15.70;99.90
23556;DHT22;11956;53.184;8.578;2023-09-19T06:48:38;15.70;99.90
23556;DHT22;11956;53.184;8.578;2023-09-19T06:51:39;15.70;99.90
23556;DHT22;11956;53.184;8.578;2023-09-19T06:54:42;15.80;99.90
23556;DHT22;11956;53.184;8.578;2023-09-19T06:57:43;15.80;99.90
23556;DHT22;11956;53.184;8.578;2023-09-19T07:00:44;15.70;99.90
23556;DHT22;11956;53.184;8.578;2023-09-19T07:03:45;15.80;99.90
23556;DHT22;11956;53.184;8.578;2023-09-19T07:06:51;15.70;99.90
23556;DHT22;11956;53.184;8.578;2023-09-19T07:09:51;15.60;99.90
23556;DHT22;11956;53.184;8.578;2023-09-19T07:16:09;15.30;99.90
23556;DHT22;11956;53.184;8.578;2023-09-19T07:19:27;15.50;99.90
23556;DHT22;11956;53.184;8.578;2023-09-19T07:22:32;16.00;99.90
23556;DHT22;11956;53.184;8.578;2023-09-19T07:25:33;16.30;99.90
23556;DHT22;11956;53.184;8.578;2023-09-19T07:28:36;16.70;99.90
23556;DHT22;11956;53.184;8.578;2023-09-19T07:31:37;17.10;99.90
23556;DHT22;11956;53.184;8.578;2023-09-19T07:34:38;17.60;99.90
23556;DHT22;11956;53.184;8.578;2023-09-19T07:37:41;18.30;99.90
23556;DHT22;11956;53.184;8.578;2023-09-19T07:40:42;19.20;99.90
23556;DHT22;11956;53.184;8.578;2023-09-19T07:43:42;19.60;99.90
23556;DHT22;11956;53.184;8.578;2023-09-19T07:46:44;20.30;99.90
23556;DHT22;11956;53.184;8.578;2023-09-19T07:49:47;20.50;99.90
23556;DHT22;11956;53.184;8.578;2023-09-19T07:52:49;20.50;99.90
23556;DHT22;11956;53.184;8.578;2023-09-19T07:56:05;20.40;99.90
23556;DHT22;11956;53.184;8.578;2023-09-19T07:59:07;20.90;99.90
23556;DHT22;11956;53.184;8.578;2023-09-19T08:02:09;21.60;99.90
23556;DHT22;11956;53.184;8.578;2023-09-19T08:05:16;22.00;99.90
23556;DHT22;11956;53.184;8.578;2023-09-19T08:08:16;23.10;99.90
23556;DHT22;11956;53.184;8.578;2023-09-19T08:11:17;23.20;99.90
23556;DHT22;11956;53.184;8.578;2023-09-19T08:14:21;23.40;99.90
23556;DHT22;11956;53.184;8.578;2023-09-19T08:17:24;23.20;99.90
23556;DHT22;11956;53.184;8.578;2023-09-19T08:20:25;22.80;99.90
23556;DHT22;11956;53.184;8.578;2023-09-19T08:23:26;23.00;99.90
23556;DHT22;11956;53.184;8.578;2023-09-19T08:26:28;22.50;99.90
23556;DHT22;11956;53.184;8.578;2023-09-19T08:29:29;22.40;99.90
23556;DHT22;11956;53.184;8.578;2023-09-19T08:32:30;22.00;99.90
23556;DHT22;11956;53.184;8.578;2023-09-19T08:35:30;22.10;99.90
23556;DHT22;11956;53.184;8.578;2023-09-19T08:38:33;22.50;99.90
23556;DHT22;11956;53.184;8.578;2023-09-19T08:41:34;23.20;99.90
23556;DHT22;11956;53.184;8.578;2023-09-19T08:44:37;23.50;99.90
23556;DHT22;11956;53.184;8.578;2023-09-19T08:47:47;24.70;99.90
23556;DHT22;11956;53.184;8.578;2023-09-19T08:51:02;25.20;99.90
23556;DHT22;11956;53.184;8.578;2023-09-19T08:54:28;25.40;99.90
23556;DHT22;11956;53.184;8.578;2023-09-19T08:57:36;24.90;99.90
23556;DHT22;11956;53.184;8.578;2023-09-19T09:00:45;24.50;99.90
23556;DHT22;11956;53.184;8.578;2023-09-19T09:03:52;23.60;99.90
23556;DHT22;11956;53.184;8.578;2023-09-19T09:06:54;23.00;99.90
23556;DHT22;11956;53.184;8.578;2023-09-19T09:09:56;23.00;99.90
23556;DHT22;11956;53.184;8.578;2023-09-19T09:12:58;22.90;99.90
23556;DHT22;11956;53.184;8.578;2023-09-19T09:15:59;22.70;99.90
23556;DHT22;11956;53.184;8.578;2023-09-19T09:19:00;23.40;99.90
23556;DHT22;11956;53.184;8.578;2023-09-19T09:22:09;24.70;99.90
23556;DHT22;11956;53.184;8.578;2023-09-19T09:25:10;25.60;99.40
23556;DHT22;11956;53.184;8.578;2023-09-19T09:28:11;26.00;98.90
23556;DHT22;11956;53.184;8.578;2023-09-19T09:31:23;25.40;98.50
23556;DHT22;11956;53.184;8.578;2023-09-19T09:34:33;25.00;99.40
23556;DHT22;11956;53.184;8.578;2023-09-19T09:37:34;24.20;99.90
23556;DHT22;11956;53.184;8.578;2023-09-19T09:40:49;23.10;99.90
23556;DHT22;11956;53.184;8.578;2023-09-19T09:44:16;22.30;99.90
23556;DHT22;11956;53.184;8.578;2023-09-19T09:47:41;21.80;99.90
23556;DHT22;11956;53.184;8.578;2023-09-19T09:50:47;21.00;99.90
23556;DHT22;11956;53.184;8.578;2023-09-19T09:53:49;20.90;99.90
23556;DHT22;11956;53.184;8.578;2023-09-19T09:56:59;20.90;99.90
23556;DHT22;11956;53.184;8.578;2023-09-19T10:00:02;20.90;99.90
23556;DHT22;11956;53.184;8.578;2023-09-19T10:03:20;20.30;99.90
23556;DHT22;11956;53.184;8.578;2023-09-19T10:06:23;20.30;99.90
23556;DHT22;11956;53.184;8.578;2023-09-19T10:09:24;20.20;99.90
23556;DHT22;11956;53.184;8.578;2023-09-19T10:12:29;20.10;99.90
23556;DHT22;11956;53.184;8.578;2023-09-19T10:15:32;20.30;99.90
23556;DHT22;11956;53.184;8.578;2023-09-19T10:18:36;20.20;99.90
23556;DHT22;11956;53.184;8.578;2023-09-19T10:21:39;20.30;99.90
23556;DHT22;11956;53.184;8.578;2023-09-19T10:24:40;20.10;99.90
23556;DHT22;11956;53.184;8.578;2023-09-19T10:27:42;20.20;99.90
23556;DHT22;11956;53.184;8.578;2023-09-19T10:30:45;20.20;99.90
23556;DHT22;11956;53.184;8.578;2023-09-19T10:33:49;20.70;99.90
23556;DHT22;11956;53.184;8.578;2023-09-19T10:36:51;21.30;99.90
23556;DHT22;11956;53.184;8.578;2023-09-19T10:39:55;21.70;99.90
23556;DHT22;11956;53.184;8.578;2023-09-19T10:43:03;21.40;99.90
23556;DHT22;11956;53.184;8.578;2023-09-19T10:46:08;21.50;99.90
23556;DHT22;11956;53.184;8.578;2023-09-19T10:49:12;21.40;99.90
23556;DHT22;11956;53.184;8.578;2023-09-19T10:52:20;21.30;99.90
23556;DHT22;11956;53.184;8.578;2023-09-19T10:55:25;21.10;99.90
23556;DHT22;11956;53.184;8.578;2023-09-19T10:58:32;21.10;99.90
23556;DHT22;11956;53.184;8.578;2023-09-19T11:01:53;21.00;99.90
23556;DHT22;11956;53.184;8.578;2023-09-19T11:05:11;21.00;99.90
23556;DHT22;11956;53.184;8.578;2023-09-19T11:08:13;21.20;99.90
23556;DHT22;11956;53.184;8.578;2023-09-19T11:14:41;21.60;99.90
23556;DHT22;11956;53.184;8.578;2023-09-19T11:17:43;21.50;99.90
23556;DHT22;11956;53.184;8.578;2023-09-19T11:24:30;21.40;99.90
23556;DHT22;11956;53.184;8.578;2023-09-19T11:27:31;21.50;99.90
23556;DHT22;11956;53.184;8.578;2023-09-19T11:30:36;21.50;99.90
23556;DHT22;11956;53.184;8.578;2023-09-19T11:33:40;21.60;99.90
23556;DHT22;11956;53.184;8.578;2023-09-19T11:36:47;21.60;99.90
23556;DHT22;11956;53.184;8.578;2023-09-19T11:40:09;21.30;99.90
23556;DHT22;11956;53.184;8.578;2023-09-19T11:43:30;21.30;99.90
23556;DHT22;11956;53.184;8.578;2023-09-19T11:49:55;21.20;99.90
23556;DHT22;11956;53.184;8.578;2023-09-19T11:52:57;21.30;99.90
23556;DHT22;11956;53.184;8.578;2023-09-19T11:55:59;21.30;99.90
23556;DHT22;11956;53.184;8.578;2023-09-19T11:59:01;21.20;99.90
23556;DHT22;11956;53.184;8.578;2023-09-19T12:02:05;21.20;99.90
23556;DHT22;11956;53.184;8.578;2023-09-19T12:05:08;21.20;99.90
23556;DHT22;11956;53.184;8.578;2023-09-19T12:08:10;21.30;99.90
23556;DHT22;11956;53.184;8.578;2023-09-19T12:11:15;21.30;99.90
23556;DHT22;11956;53.184;8.578;2023-09-19T12:14:23;21.10;99.90
23556;DHT22;11956;53.184;8.578;2023-09-19T12:17:39;21.10;99.90
23556;DHT22;11956;53.184;8.578;2023-09-19T12:20:46;21.30;99.90
23556;DHT22;11956;53.184;8.578;2023-09-19T12:24:14;21.20;99.90
23556;DHT22;11956;53.184;8.578;2023-09-19T12:27:20;21.00;99.90
23556;DHT22;11956;53.184;8.578;2023-09-19T12:30:28;20.70;99.90
23556;DHT22;11956;53.184;8.578;2023-09-19T12:33:34;20.80;99.90
23556;DHT22;11956;53.184;8.578;2023-09-19T12:36:36;21.00;99.90
23556;DHT22;11956;53.184;8.578;2023-09-19T12:39:41;21.00;99.90
23556;DHT22;11956;53.184;8.578;2023-09-19T12:42:45;21.00;99.90
23556;DHT22;11956;53.184;8.578;2023-09-19T12:45:47;21.10;99.90
23556;DHT22;11956;53.184;8.578;2023-09-19T12:52:18;21.20;99.90
23556;DHT22;11956;53.184;8.578;2023-09-19T12:55:27;21.30;99.90
23556;DHT22;11956;53.184;8.578;2023-09-19T12:58:29;21.30;99.90
23556;DHT22;11956;53.184;8.578;2023-09-19T13:01:31;21.40;99.90
23556;DHT22;11956;53.184;8.578;2023-09-19T13:04:32;21.30;99.90
23556;DHT22;11956;53.184;8.578;2023-09-19T13:07:42;21.40;99.90
23556;DHT22;11956;53.184;8.578;2023-09-19T13:11:13;21.10;99.90
23556;DHT22;11956;53.184;8.578;2023-09-19T13:14:28;21.00;99.90
23556;DHT22;11956;53.184;8.578;2023-09-19T13:17:43;21.10;99.90
23556;DHT22;11956;53.184;8.578;2023-09-19T13:20:55;21.20;99.90
23556;DHT22;11956;53.184;8.578;2023-09-19T13:24:23;21.30;99.90
23556;DHT22;11956;53.184;8.578;2023-09-19T13:27:27;21.40;99.90
23556;DHT22;11956;53.184;8.578;2023-09-19T13:30:29;21.30;99.90
23556;DHT22;11956;53.184;8.578;2023-09-19T13:33:30;21.20;99.90
23556;DHT22;11956;53.184;8.578;2023-09-19T13:36:31;21.10;99.90
23556;DHT22;11956;53.184;8.578;2023-09-19T13:39:32;20.90;99.90
23556;DHT22;11956;53.184;8.578;2023-09-19T13:42:33;21.00;99.90
23556;DHT22;11956;53.184;8.578;2023-09-19T13:45:34;20.90;99.90
23556;DHT22;11956;53.184;8.578;2023-09-19T13:48:35;20.90;99.90
23556;DHT22;11956;53.184;8.578;2023-09-19T13:51:35;20.90;99.90
23556;DHT22;11956;53.184;8.578;2023-09-19T13:54:36;21.00;99.90
23556;DHT22;11956;53.184;8.578;2023-09-19T13:57:37;21.10;99.90
23556;DHT22;11956;53.184;8.578;2023-09-19T14:00:38;21.10;99.90
23556;DHT22;11956;53.184;8.578;2023-09-19T14:03:39;21.20;99.90
23556;DHT22;11956;53.184;8.578;2023-09-19T14:06:44;21.20;99.90
23556;DHT22;11956;53.184;8.578;2023-09-19T14:09:46;21.20;99.90
23556;DHT22;11956;53.184;8.578;2023-09-19T14:12:47;21.20;99.90
23556;DHT22;11956;53.184;8.578;2023-09-19T14:15:48;21.00;99.90
23556;DHT22;11956;53.184;8.578;2023-09-19T14:18:49;21.00;99.90
23556;DHT22;11956;53.184;8.578;2023-09-19T14:21:51;20.90;99.90
23556;DHT22;11956;53.184;8.578;2023-09-19T14:24:52;20.90;99.90
23556;DHT22;11956;53.184;8.578;2023-09-19T14:27:53;20.70;99.90
23556;DHT22;11956;53.184;8.578;2023-09-19T14:30:54;20.70;99.90
23556;DHT22;11956;53.184;8.578;2023-09-19T14:33:55;20.50;99.90
23556;DHT22;11956;53.184;8.578;2023-09-19T14:36:59;20.50;99.90
23556;DHT22;11956;53.184;8.578;2023-09-19T14:40:00;20.50;99.90
23556;DHT22;11956;53.184;8.578;2023-09-19T14:43:03;20.50;99.90
23556;DHT22;11956;53.184;8.578;2023-09-19T14:46:05;20.50;99.90
23556;DHT22;11956;53.184;8.578;2023-09-19T14:49:11;20.50;99.90
23556;DHT22;11956;53.184;8.578;2023-09-19T14:52:12;20.40;99.90
23556;DHT22;11956;53.184;8.578;2023-09-19T14:55:16;20.40;99.90
23556;DHT22;11956;53.184;8.578;2023-09-19T14:58:16;20.30;99.90
23556;DHT22;11956;53.184;8.578;2023-09-19T15:01:18;20.20;99.90
23556;DHT22;11956;53.184;8.578;2023-09-19T15:04:19;20.10;99.90
23556;DHT22;11956;53.184;8.578;2023-09-19T15:07:20;20.10;99.90
23556;DHT22;11956;53.184;8.578;2023-09-19T15:10:21;19.90;99.90
23556;DHT22;11956;53.184;8.578;2023-09-19T15:13:22;19.90;99.90
23556;DHT22;11956;53.184;8.578;2023-09-19T15:16:24;19.80;99.90
23556;DHT22;11956;53.184;8.578;2023-09-19T15:19:25;19.80;99.90
23556;DHT22;11956;53.184;8.578;2023-09-19T15:22:26;19.80;99.90
23556;DHT22;11956;53.184;8.578;2023-09-19T15:25:27;19.80;99.90
23556;DHT22;11956;53.184;8.578;2023-09-19T15:28:31;19.80;99.90
23556;DHT22;11956;53.184;8.578;2023-09-19T15:31:33;20.00;99.90
23556;DHT22;11956;53.184;8.578;2023-09-19T15:34:34;20.30;99.90
23556;DHT22;11956;53.184;8.578;2023-09-19T15:37:35;20.30;99.90
23556;DHT22;11956;53.184;8.578;2023-09-19T15:40:36;20.30;99.90
23556;DHT22;11956;53.184;8.578;2023-09-19T15:43:46;20.30;99.90
23556;DHT22;11956;53.184;8.578;2023-09-19T15:46:47;20.00;99.90
23556;DHT22;11956;53.184;8.578;2023-09-19T15:49:48;19.90;99.90
23556;DHT22;11956;53.184;8.578;2023-09-19T15:52:53;19.90;99.90
23556;DHT22;11956;53.184;8.578;2023-09-19T15:55:55;19.90;99.90
23556;DHT22;11956;53.184;8.578;2023-09-19T15:58:56;19.90;99.90
23556;DHT22;11956;53.184;8.578;2023-09-19T16:01:57;19.80;99.90
23556;DHT22;11956;53.184;8.578;2023-09-19T16:04:58;19.80;99.90
23556;DHT22;11956;53.184;8.578;2023-09-19T16:07:59;19.80;99.90
23556;DHT22;11956;53.184;8.578;2023-09-19T16:10:59;19.70;99.90
23556;DHT22;11956;53.184;8.578;2023-09-19T16:14:01;19.60;99.90
23556;DHT22;11956;53.184;8.578;2023-09-19T16:17:01;19.60;99.90
23556;DHT22;11956;53.184;8.578;2023-09-19T16:20:03;19.70;99.90
23556;DHT22;11956;53.184;8.578;2023-09-19T16:23:04;19.70;99.90
23556;DHT22;11956;53.184;8.578;2023-09-19T16:26:08;19.70;99.90
23556;DHT22;11956;53.184;8.578;2023-09-19T16:29:09;19.60;99.90
23556;DHT22;11956;53.184;8.578;2023-09-19T16:32:10;19.60;99.90
23556;DHT22;11956;53.184;8.578;2023-09-19T16:35:11;19.60;99.90
23556;DHT22;11956;53.184;8.578;2023-09-19T16:38:13;19.50;99.90
23556;DHT22;11956;53.184;8.578;2023-09-19T16:41:14;19.50;99.90
23556;DHT22;11956;53.184;8.578;2023-09-19T16:44:17;19.40;99.90
23556;DHT22;11956;53.184;8.578;2023-09-19T16:47:21;19.40;99.90
23556;DHT22;11956;53.184;8.578;2023-09-19T16:50:22;19.40;99.90
23556;DHT22;11956;53.184;8.578;2023-09-19T16:53:22;19.40;99.90
23556;DHT22;11956;53.184;8.578;2023-09-19T16:56:23;19.30;99.90
23556;DHT22;11956;53.184;8.578;2023-09-19T16:59:25;19.30;99.90
23556;DHT22;11956;53.184;8.578;2023-09-19T17:02:26;19.30;99.90
23556;DHT22;11956;53.184;8.578;2023-09-19T17:05:29;19.30;99.90
23556;DHT22;11956;53.184;8.578;2023-09-19T17:08:31;19.20;99.90
23556;DHT22;11956;53.184;8.578;2023-09-19T17:11:31;19.20;99.90
23556;DHT22;11956;53.184;8.578;2023-09-19T17:14:34;19.30;99.90
23556;DHT22;11956;53.184;8.578;2023-09-19T17:17:36;19.20;99.90
23556;DHT22;11956;53.184;8.578;2023-09-19T17:20:41;19.20;99.90
23556;DHT22;11956;53.184;8.578;2023-09-19T17:23:42;19.20;99.90
23556;DHT22;11956;53.184;8.578;2023-09-19T17:26:43;19.20;99.90
23556;DHT22;11956;53.184;8.578;2023-09-19T17:29:44;19.20;99.90
23556;DHT22;11956;53.184;8.578;2023-09-19T17:32:45;19.20;99.90
23556;DHT22;11956;53.184;8.578;2023-09-19T17:35:46;19.20;99.90
23556;DHT22;11956;53.184;8.578;2023-09-19T17:38:52;19.30;99.90
23556;DHT22;11956;53.184;8.578;2023-09-19T17:41:54;19.20;99.90
23556;DHT22;11956;53.184;8.578;2023-09-19T17:44:55;19.20;99.90
23556;DHT22;11956;53.184;8.578;2023-09-19T17:47:56;19.20;99.90
23556;DHT22;11956;53.184;8.578;2023-09-19T17:51:01;19.20;99.90
23556;DHT22;11956;53.184;8.578;2023-09-19T17:54:05;19.20;99.90
23556;DHT22;11956;53.184;8.578;2023-09-19T17:57:06;19.20;99.90
23556;DHT22;11956;53.184;8.578;2023-09-19T18:00:09;19.20;99.90
23556;DHT22;11956;53.184;8.578;2023-09-19T18:03:14;19.20;99.90
23556;DHT22;11956;53.184;8.578;2023-09-19T18:06:15;19.20;99.90
23556;DHT22;11956;53.184;8.578;2023-09-19T18:09:17;19.20;99.90
23556;DHT22;11956;53.184;8.578;2023-09-19T18:12:18;19.20;99.90
23556;DHT22;11956;53.184;8.578;2023-09-19T18:15:19;19.20;99.90
23556;DHT22;11956;53.184;8.578;2023-09-19T18:18:21;19.20;99.90
23556;DHT22;11956;53.184;8.578;2023-09-19T18:21:22;19.20;99.90
23556;DHT22;11956;53.184;8.578;2023-09-19T18:24:23;19.20;99.90
23556;DHT22;11956;53.184;8.578;2023-09-19T18:27:27;19.20;99.90
23556;DHT22;11956;53.184;8.578;2023-09-19T18:30:31;19.20;99.90
23556;DHT22;11956;53.184;8.578;2023-09-19T18:33:32;19.20;99.90
23556;DHT22;11956;53.184;8.578;2023-09-19T18:36:39;19.20;99.90
23556;DHT22;11956;53.184;8.578;2023-09-19T18:39:40;19.20;99.90
23556;DHT22;11956;53.184;8.578;2023-09-19T18:42:41;19.20;99.90
23556;DHT22;11956;53.184;8.578;2023-09-19T18:45:42;19.20;99.90
23556;DHT22;11956;53.184;8.578;2023-09-19T18:48:44;19.20;99.90
23556;DHT22;11956;53.184;8.578;2023-09-19T18:51:46;19.10;99.90
23556;DHT22;11956;53.184;8.578;2023-09-19T18:54:48;19.10;99.90
23556;DHT22;11956;53.184;8.578;2023-09-19T18:57:52;19.10;99.90
23556;DHT22;11956;53.184;8.578;2023-09-19T19:01:00;19.10;99.90
23556;DHT22;11956;53.184;8.578;2023-09-19T19:04:02;19.00;99.90
23556;DHT22;11956;53.184;8.578;2023-09-19T19:07:03;19.00;99.90
23556;DHT22;11956;53.184;8.578;2023-09-19T19:10:05;19.00;99.90
23556;DHT22;11956;53.184;8.578;2023-09-19T19:13:08;19.00;99.90
23556;DHT22;11956;53.184;8.578;2023-09-19T19:16:09;19.00;99.90
23556;DHT22;11956;53.184;8.578;2023-09-19T19:19:12;19.00;99.90
23556;DHT22;11956;53.184;8.578;2023-09-19T19:22:15;18.90;99.90
23556;DHT22;11956;53.184;8.578;2023-09-19T19:25:17;18.90;99.90
23556;DHT22;11956;53.184;8.578;2023-09-19T19:28:20;18.90;99.90
23556;DHT22;11956;53.184;8.578;2023-09-19T19:31:20;18.90;99.90
23556;DHT22;11956;53.184;8.578;2023-09-19T19:34:23;18.90;99.90
23556;DHT22;11956;53.184;8.578;2023-09-19T19:37:25;18.80;99.90
23556;DHT22;11956;53.184;8.578;2023-09-19T19:40:26;18.90;99.90
23556;DHT22;11956;53.184;8.578;2023-09-19T19:43:27;18.80;99.90
23556;DHT22;11956;53.184;8.578;2023-09-19T19:46:29;18.90;99.90
23556;DHT22;11956;53.184;8.578;2023-09-19T19:49:30;18.90;99.90